Hanseatic Scout — V2BM2 — position and weather

sailwx.info

Track history (hours):
 
Tides and Currents Weather Stations Pressure Air Temp Water Temp Dewpoint Dewpoint Depression Visibility Wind Speed Wind Dir Waves Ship Positions

Hanseatic Scout

Last reported at 2015-May-30 00:31 UTC. Time now 2015-May-30 04:32 UTC.
Position N 54°37' E 012°33'.

Length 89 m; draft 6.3 m.

Type: Cargo ship. MMSI: 304867000.

Date/timePositionNaut miles runAvg speedWind from/ knotsBaromVisibWave heightAir tempDewpointWater temp
2015-May-30 00:31N 54°37' E 012°33'1010.0
2015-May-29 23:33N 54°32' E 012°19'10 9.7
2015-May-29 22:34N 54°25' E 012°09'10 9.6
2015-May-29 21:33N 54°25' E 011°53'9 9.5
2015-May-29 20:33N 54°28' E 011°37'9 9.4
2015-May-29 19:33N 54°32' E 011°23'9 9.0
2015-May-29 18:33N 54°36' E 011°09'9 9.4
2015-May-29 17:33N 54°35' E 010°53'1010.0
2015-May-29 16:33N 54°34' E 010°36'1010.0
2015-May-29 15:34N 54°30' E 010°20'9 9.2
2015-May-29 14:33N 54°22' E 010°11'2 2.3
2015-May-29 13:33N 54°22' E 010°07'7 6.9
2015-May-29 12:33N 54°21' E 009°55'7 7.4
2015-May-29 11:33N 54°19' E 009°43'8 7.5
2015-May-29 10:33N 54°13' E 009°35'9 8.4
2015-May-29 09:29N 54°09' E 009°22'8 8.1
2015-May-29 08:34N 54°02' E 009°18'8 7.9
2015-May-29 07:34N 53°55' E 009°11'3 3.5
2015-May-29 06:34N 53°53' E 009°06'7 6.8
2015-May-29 05:33N 53°51' E 008°55'9 8.8
2015-May-29 04:33N 53°54' E 008°42'9 9.0
2015-May-29 03:34N 53°58' E 008°28'10 9.6
2015-May-29 02:33N 53°60' E 008°12'1010.0
2015-May-29 01:33N 53°58' E 007°55'10 9.6
2015-May-29 00:34N 53°55' E 007°40'9 9.3
2015-May-28 23:34N 53°53' E 007°24'9 9.2
2015-May-28 22:34N 53°51' E 007°09'30 9.4
2015-May-28 19:24N 53°44' E 006°20'8 9.2
2015-May-28 18:33N 53°41' E 006°08'1010.2
2015-May-28 17:33N 53°38' E 005°51'1010.5
2015-May-28 16:34N 53°35' E 005°34'1110.7
2015-May-28 15:33N 53°31' E 005°17'1110.9
2015-May-28 14:32N 53°28' E 004°60'7510.2
2015-May-28 07:10N 52°24' E 003°53'6 9.1
2015-May-28 06:34N 52°19' E 003°52'9 8.9
2015-May-28 05:34N 52°10' E 003°54'8 8.2
2015-May-28 04:33N 52°02' E 003°54'9 9.0
2015-May-28 03:34N 51°58' E 004°07'0 0.2
2015-May-28 02:34N 51°58' E 004°07'0 0.0
2015-May-28 01:33N 51°58' E 004°07'0 0.0
2015-May-28 00:33N 51°58' E 004°07'0 0.0
2015-May-27 23:33N 51°58' E 004°07'0 0.0
2015-May-27 22:33N 51°58' E 004°07'0 0.0
2015-May-27 21:33N 51°58' E 004°07'0 0.0
2015-May-27 20:33N 51°58' E 004°07'0 0.0
2015-May-27 19:33N 51°58' E 004°07'0 0.0
2015-May-27 18:30N 51°58' E 004°07'0 0.0
2015-May-27 17:33N 51°58' E 004°07'0 0.0
2015-May-27 16:33N 51°58' E 004°07'0 0.0
2015-May-27 15:33N 51°58' E 004°07'0 0.0
2015-May-27 14:33N 51°58' E 004°07'0 0.0
2015-May-27 13:33N 51°58' E 004°07'0 0.0
2015-May-27 12:30N 51°58' E 004°07'0 0.0
2015-May-27 11:33N 51°58' E 004°07'0 0.0
2015-May-27 10:33N 51°58' E 004°07'0 0.0
2015-May-27 09:33N 51°58' E 004°07'0 0.0
2015-May-27 08:33N 51°58' E 004°07'0 0.0
2015-May-27 07:33N 51°58' E 004°07'0 0.0
2015-May-27 06:33N 51°58' E 004°07'0 0.0
2015-May-27 05:33N 51°58' E 004°07'0 0.0
2015-May-27 04:33N 51°58' E 004°07'0 0.0
2015-May-27 03:33N 51°58' E 004°07'0 0.0
2015-May-27 02:33N 51°58' E 004°07'0 0.0
2015-May-27 01:33N 51°58' E 004°07'0 0.0
2015-May-27 00:33N 51°58' E 004°07'0 0.0
2015-May-26 23:33N 51°58' E 004°07'0 0.0
2015-May-26 22:33N 51°58' E 004°07'0 0.0
2015-May-26 21:33N 51°58' E 004°07'0 0.0
2015-May-26 20:33N 51°58' E 004°07'0 0.0
2015-May-26 19:33N 51°58' E 004°07'0 0.3
2015-May-26 18:31N 51°57' E 004°08'0 0.0
2015-May-26 17:31N 51°57' E 004°08'0 0.0
2015-May-26 16:31N 51°57' E 004°08'0 0.0
2015-May-26 15:31N 51°57' E 004°08'0 0.0
2015-May-26 14:31N 51°57' E 004°08'0 0.0
2015-May-26 13:31N 51°57' E 004°08'0 0.0
2015-May-26 12:31N 51°57' E 004°08'0 0.0
2015-May-26 11:31N 51°57' E 004°08'0 0.0
2015-May-26 10:31N 51°57' E 004°08'0 0.0
2015-May-26 09:31N 51°57' E 004°08'0 0.0
2015-May-26 08:33N 51°57' E 004°08'1 0.7
2015-May-26 07:33N 51°58' E 004°07'1110.8
2015-May-26 06:33N 52°00' E 003°50'9 8.8
2015-May-26 05:29N 51°57' E 003°35'7 7.5
2015-May-26 04:30N 51°55' E 003°24'36 7.2
2015-May-25 23:25N 51°40' E 002°30'6 7.1
2015-May-25 22:32N 51°35' E 002°23'7 7.1
2015-May-25 21:33N 51°30' E 002°16'7 7.1
2015-May-25 20:34N 51°24' E 002°12'7 7.0
2015-May-25 19:33N 51°17' E 002°07'7 6.6
2015-May-25 18:33N 51°12' E 002°00'8 7.9
2015-May-25 17:33N 51°08' E 001°49'10 9.6
2015-May-25 16:33N 51°01' E 001°38'9 9.1
2015-May-25 15:33N 50°55' E 001°28'10 7.9
2015-May-25 14:18N 50°46' E 001°23'94 6.6
2015-May-25 00:04N 50°22' W 001°00'71 7.5
2015-May-24 14:33N 50°13' W 002°51'9 9.1
2015-May-24 13:33N 50°11' W 003°05'10 9.3
2015-May-24 12:31N 50°09' W 003°19'124 5.6
2015-May-23 14:27N 51°19' W 005°60'15 7.8
2015-May-23 12:31N 51°34' W 006°00'8 7.5
2015-May-23 11:25N 51°42' W 005°59'8 7.2
2015-May-23 10:22N 51°49' W 005°56'6 7.1
2015-May-23 09:33N 51°55' W 005°53'8 7.7
2015-May-23 08:33N 52°02' W 005°49'12 9.0
2015-May-23 07:11N 52°14' W 005°43'610.0
2015-May-23 06:33N 52°20' W 005°41'1010.6
2015-May-23 05:33N 52°30' W 005°36'33 9.9
2015-May-23 02:17N 53°02' W 005°22'44 7.3
2015-May-22 20:15N 53°42' W 005°50'6 8.1
2015-May-22 19:33N 53°48' W 005°54'8 8.2
2015-May-22 18:33N 53°55' W 005°59'9 9.2
2015-May-22 17:33N 54°03' W 006°08'5 0.1
2015-May-20 19:07N 54°06' W 006°16'7 0.7
2015-May-20 09:33N 54°02' W 006°07'4 3.0
2015-May-20 08:14N 53°59' W 006°02'0 0.0
2015-May-20 07:32N 53°59' W 006°02'0 0.0
2015-May-20 06:26N 53°59' W 006°02'0 0.0
2015-May-20 05:14N 53°59' W 006°02'0 0.0
2015-May-20 04:32N 53°59' W 006°02'0 0.0
2015-May-20 03:30N 53°59' W 006°02'3 3.5
2015-May-20 02:33N 54°01' W 005°57'10 9.8
2015-May-20 01:33N 54°07' W 005°45'  
Track history (hours):
 
Tides and Currents Weather Stations Pressure Air Temp Water Temp Dewpoint Dewpoint Depression Visibility Wind Speed Wind Dir Waves Ship Positions

Hanseatic Scout

Last reported at 2015-May-30 00:31 UTC. Time now 2015-May-30 04:32 UTC.
Position N 54°37' E 012°33'.

Length 89 m; draft 6.3 m.

Type: Cargo ship. MMSI: 304867000.

Date/timePositionNaut miles runAvg speedWind from/ knotsBaromVisibWave heightAir tempDewpointWater temp
2015-May-30 00:31N 54°37' E 012°33'1010.0
2015-May-29 23:33N 54°32' E 012°19'10 9.7
2015-May-29 22:34N 54°25' E 012°09'10 9.6
2015-May-29 21:33N 54°25' E 011°53'9 9.5
2015-May-29 20:33N 54°28' E 011°37'9 9.4
2015-May-29 19:33N 54°32' E 011°23'9 9.0
2015-May-29 18:33N 54°36' E 011°09'9 9.4
2015-May-29 17:33N 54°35' E 010°53'1010.0
2015-May-29 16:33N 54°34' E 010°36'1010.0
2015-May-29 15:34N 54°30' E 010°20'9 9.2
2015-May-29 14:33N 54°22' E 010°11'2 2.3
2015-May-29 13:33N 54°22' E 010°07'7 6.9
2015-May-29 12:33N 54°21' E 009°55'7 7.4
2015-May-29 11:33N 54°19' E 009°43'8 7.5
2015-May-29 10:33N 54°13' E 009°35'9 8.4
2015-May-29 09:29N 54°09' E 009°22'8 8.1
2015-May-29 08:34N 54°02' E 009°18'8 7.9
2015-May-29 07:34N 53°55' E 009°11'3 3.5
2015-May-29 06:34N 53°53' E 009°06'7 6.8
2015-May-29 05:33N 53°51' E 008°55'9 8.8
2015-May-29 04:33N 53°54' E 008°42'9 9.0
2015-May-29 03:34N 53°58' E 008°28'10 9.6
2015-May-29 02:33N 53°60' E 008°12'1010.0
2015-May-29 01:33N 53°58' E 007°55'10 9.6
2015-May-29 00:34N 53°55' E 007°40'9 9.3
2015-May-28 23:34N 53°53' E 007°24'9 9.2
2015-May-28 22:34N 53°51' E 007°09'30 9.4
2015-May-28 19:24N 53°44' E 006°20'8 9.2
2015-May-28 18:33N 53°41' E 006°08'1010.2
2015-May-28 17:33N 53°38' E 005°51'1010.5
2015-May-28 16:34N 53°35' E 005°34'1110.7
2015-May-28 15:33N 53°31' E 005°17'1110.9
2015-May-28 14:32N 53°28' E 004°60'7510.2
2015-May-28 07:10N 52°24' E 003°53'6 9.1
2015-May-28 06:34N 52°19' E 003°52'9 8.9
2015-May-28 05:34N 52°10' E 003°54'8 8.2
2015-May-28 04:33N 52°02' E 003°54'9 9.0
2015-May-28 03:34N 51°58' E 004°07'0 0.2
2015-May-28 02:34N 51°58' E 004°07'0 0.0
2015-May-28 01:33N 51°58' E 004°07'0 0.0
2015-May-28 00:33N 51°58' E 004°07'0 0.0
2015-May-27 23:33N 51°58' E 004°07'0 0.0
2015-May-27 22:33N 51°58' E 004°07'0 0.0
2015-May-27 21:33N 51°58' E 004°07'0 0.0
2015-May-27 20:33N 51°58' E 004°07'0 0.0
2015-May-27 19:33N 51°58' E 004°07'0 0.0
2015-May-27 18:30N 51°58' E 004°07'0 0.0
2015-May-27 17:33N 51°58' E 004°07'0 0.0
2015-May-27 16:33N 51°58' E 004°07'0 0.0
2015-May-27 15:33N 51°58' E 004°07'0 0.0
2015-May-27 14:33N 51°58' E 004°07'0 0.0
2015-May-27 13:33N 51°58' E 004°07'0 0.0
2015-May-27 12:30N 51°58' E 004°07'0 0.0
2015-May-27 11:33N 51°58' E 004°07'0 0.0
2015-May-27 10:33N 51°58' E 004°07'0 0.0
2015-May-27 09:33N 51°58' E 004°07'0 0.0
2015-May-27 08:33N 51°58' E 004°07'0 0.0
2015-May-27 07:33N 51°58' E 004°07'0 0.0
2015-May-27 06:33N 51°58' E 004°07'0 0.0
2015-May-27 05:33N 51°58' E 004°07'0 0.0
2015-May-27 04:33N 51°58' E 004°07'0 0.0
2015-May-27 03:33N 51°58' E 004°07'0 0.0
2015-May-27 02:33N 51°58' E 004°07'0 0.0
2015-May-27 01:33N 51°58' E 004°07'0 0.0
2015-May-27 00:33N 51°58' E 004°07'0 0.0
2015-May-26 23:33N 51°58' E 004°07'0 0.0
2015-May-26 22:33N 51°58' E 004°07'0 0.0
2015-May-26 21:33N 51°58' E 004°07'0 0.0
2015-May-26 20:33N 51°58' E 004°07'0 0.0
2015-May-26 19:33N 51°58' E 004°07'0 0.3
2015-May-26 18:31N 51°57' E 004°08'0 0.0
2015-May-26 17:31N 51°57' E 004°08'0 0.0
2015-May-26 16:31N 51°57' E 004°08'0 0.0
2015-May-26 15:31N 51°57' E 004°08'0 0.0
2015-May-26 14:31N 51°57' E 004°08'0 0.0
2015-May-26 13:31N 51°57' E 004°08'0 0.0
2015-May-26 12:31N 51°57' E 004°08'0 0.0
2015-May-26 11:31N 51°57' E 004°08'0 0.0
2015-May-26 10:31N 51°57' E 004°08'0 0.0
2015-May-26 09:31N 51°57' E 004°08'0 0.0
2015-May-26 08:33N 51°57' E 004°08'1 0.7
2015-May-26 07:33N 51°58' E 004°07'1110.8
2015-May-26 06:33N 52°00' E 003°50'9 8.8
2015-May-26 05:29N 51°57' E 003°35'7 7.5
2015-May-26 04:30N 51°55' E 003°24'36 7.2
2015-May-25 23:25N 51°40' E 002°30'6 7.1
2015-May-25 22:32N 51°35' E 002°23'7 7.1
2015-May-25 21:33N 51°30' E 002°16'7 7.1
2015-May-25 20:34N 51°24' E 002°12'7 7.0
2015-May-25 19:33N 51°17' E 002°07'7 6.6
2015-May-25 18:33N 51°12' E 002°00'8 7.9
2015-May-25 17:33N 51°08' E 001°49'10 9.6
2015-May-25 16:33N 51°01' E 001°38'9 9.1
2015-May-25 15:33N 50°55' E 001°28'10 7.9
2015-May-25 14:18N 50°46' E 001°23'94 6.6
2015-May-25 00:04N 50°22' W 001°00'71 7.5
2015-May-24 14:33N 50°13' W 002°51'9 9.1
2015-May-24 13:33N 50°11' W 003°05'10 9.3
2015-May-24 12:31N 50°09' W 003°19'124 5.6
2015-May-23 14:27N 51°19' W 005°60'15 7.8
2015-May-23 12:31N 51°34' W 006°00'8 7.5
2015-May-23 11:25N 51°42' W 005°59'8 7.2
2015-May-23 10:22N 51°49' W 005°56'6 7.1
2015-May-23 09:33N 51°55' W 005°53'8 7.7
2015-May-23 08:33N 52°02' W 005°49'12 9.0
2015-May-23 07:11N 52°14' W 005°43'610.0
2015-May-23 06:33N 52°20' W 005°41'1010.6
2015-May-23 05:33N 52°30' W 005°36'33 9.9
2015-May-23 02:17N 53°02' W 005°22'44 7.3
2015-May-22 20:15N 53°42' W 005°50'6 8.1
2015-May-22 19:33N 53°48' W 005°54'8 8.2
2015-May-22 18:33N 53°55' W 005°59'9 9.2
2015-May-22 17:33N 54°03' W 006°08'5 0.1
2015-May-20 19:07N 54°06' W 006°16'7 0.7
2015-May-20 09:33N 54°02' W 006°07'4 3.0
2015-May-20 08:14N 53°59' W 006°02'0 0.0
2015-May-20 07:32N 53°59' W 006°02'0 0.0
2015-May-20 06:26N 53°59' W 006°02'0 0.0
2015-May-20 05:14N 53°59' W 006°02'0 0.0
2015-May-20 04:32N 53°59' W 006°02'0 0.0
2015-May-20 03:30N 53°59' W 006°02'3 3.5
2015-May-20 02:33N 54°01' W 005°57'10 9.8
2015-May-20 01:33N 54°07' W 005°45'  

Dump ship's entire track history